1945 Tropical Low NOT_NAMED (1945060S14122)


IBTrACS version v04r00. Visit IBTrACS website for data access.
Please direct all questions to the IBTrACS Q and A forum

Storm track - Intensity - Wind Radii - Intensity Data - Source Data - All data

Summary Information

Storm ID 1945060S14122
Start Feb 28 23Z
Landfall Mar 6 18Z
Max Intensity 945 mb (Mar 6 21Z)
End Mar 8 01Z
ATCF IDs ,SH081945
Track status Best track data.

Storm track plot

Map of storm track

Intensity plots

Map of storm track

Radial wind information

No radial wind information for this storm


Position and Intensity Table

BASIN ISO_TIME_________ NATURE LAT LON WMO PRES BOM PRES
degrees north degrees east mb mb
SI 1945-02-28 23:00:00 NR -13.90 122.00
SI 1945-03-01 00:00:00 TS -13.91 122.01
SI 01:00:00 TS -14.00 121.83 992 992
SI 03:00:00 TS -14.08 121.81
SI 06:00:00 TS -14.18 121.81
SI 09:00:00 TS -14.26 121.76
SI 11:00:00 TS -14.29 121.78
SI 12:00:00 TS -14.31 121.79
SI 15:00:00 TS -14.36 121.83
SI 18:00:00 TS -14.41 121.86
SI 21:00:00 TS -14.47 121.87
SI 23:00:00 TS -14.52 121.83
SI 1945-03-02 00:00:00 TS -14.58 121.68
SI 01:00:00 TS -14.64 121.53 985 985
SI 03:00:00 TS -14.75 121.28
SI 06:00:00 TS -14.93 120.91
SI 09:00:00 TS -15.08 120.57
SI 11:00:00 TS -15.18 120.32
SI 12:00:00 TS -15.24 120.19
SI 15:00:00 TS -15.39 119.79
SI 18:00:00 TS -15.55 119.37
SI 21:00:00 TS -15.70 118.97
SI 23:00:00 TS -15.81 118.71
SI 1945-03-03 00:00:00 TS -15.86 118.59
SI 01:00:00 TS -15.91 118.46 980 980
SI 03:00:00 TS -16.01 118.22
SI 06:00:00 TS -16.16 117.86
SI 09:00:00 TS -16.31 117.51
SI 11:00:00 TS -16.41 117.27
SI 12:00:00 TS -16.46 117.14
SI 15:00:00 TS -16.62 116.74
SI 18:00:00 TS -16.77 116.34
SI 21:00:00 TS -16.92 115.95
SI 23:00:00 TS -17.02 115.73
SI 1945-03-04 00:00:00 TS -17.06 115.63
SI 01:00:00 TS -17.11 115.54 970 970
SI 03:00:00 TS -17.18 115.38
SI 06:00:00 TS -17.28 115.18
SI 09:00:00 TS -17.36 115.01
SI 11:00:00 TS -17.41 114.92
SI 12:00:00 TS -17.44 114.87
SI 15:00:00 TS -17.54 114.71
SI 18:00:00 TS -17.65 114.57
SI 21:00:00 TS -17.75 114.46
SI 23:00:00 TS -17.83 114.41
SI 1945-03-05 00:00:00 TS -17.88 114.38
SI 01:00:00 TS -17.94 114.35 965 965
SI 03:00:00 TS -18.07 114.28
SI 06:00:00 TS -18.29 114.20
SI 09:00:00 TS -18.53 114.17
SI 11:00:00 TS -18.70 114.17
SI 12:00:00 TS -18.78 114.17
SI 13:00:00 TS -18.87 114.18
SI 15:00:00 TS -19.03 114.20
SI 18:00:00 TS -19.27 114.28
SI 21:00:00 TS -19.51 114.43
SI 23:00:00 TS -19.67 114.56
SI 1945-03-06 00:00:00 TS -19.75 114.64
SI 01:00:00 TS -19.83 114.71 950 950
SI 03:00:00 TS -20.00 114.88
SI 06:00:00 TS -20.24 115.16
SI 09:00:00 TS -20.48 115.43
SI 11:00:00 TS -20.62 115.63
SI 12:00:00 TS -20.69 115.73
SI 15:00:00 TS -20.87 116.05
SI 18:00:00 TS -21.04 116.39
SI 21:00:00 TS -21.23 116.76 945 945
SI 23:00:00 TS -21.36 117.03 955
SI 1945-03-07 00:00:00 TS -21.43 117.17 960
SI 01:00:00 TS -21.50 117.32 965 965
SI 03:00:00 TS -21.62 117.64
SI 06:00:00 TS -21.77 118.15
SI 09:00:00 TS -21.91 118.68
SI 11:00:00 TS -21.97 119.05
SI 12:00:00 TS -21.97 119.22
SI 15:00:00 TS -21.95 119.73
SI 18:00:00 TS -21.85 120.18
SI 21:00:00 TS -21.67 120.58
SI 23:00:00 TS -21.57 120.85
SI 1945-03-08 00:00:00 TS -21.43 120.84
SI 01:00:00 NR -21.40 121.00 995 995

Source Information

Agency Information
USA bsh081945.txt
TOKYO
CMA
HKO
NEWDELHI
REUNION
BOM IDCKMSTM0S.csv:Line=1235:unnamed
NADI
WELLINGTON
DS824 s_hem.dat:421:08S
TD9636 cons_worldwide_trop_cyclone_18710101-19891231-006:Line=2829
TD9635
NEUMANN
MLC

All available IBTrACS Data

SEASON BASIN SUBBASIN ISO_TIME_________ NATURE LAT LON WMO PRES WMO AGENCY DIST2LAND LANDFALL IFLAG USA AGENCY USA ATCF_ID USA LAT USA LON USA SSHS BOM LAT BOM LON BOM PRES BOM PRES_METHOD DS824 LAT DS824 LON DS824 STAGE TD9636 LAT TD9636 LON TD9636 STAGE STORM SPEED STORM DIR
Year degrees north degrees east mb km km degrees north degrees east 1 degrees north degrees east mb degrees north degrees east degrees north degrees east kts degrees
1945 SI WA 1945-02-28 23:00:00 NR -13.90 122.00 306 306 __________O___ -1 -13.90 122.00 7 1 0
1945 SI WA 1945-03-01 00:00:00 TS -13.91 122.01 306 299 O________OP___ jtwc_sh SH081945 -13.90 122.00 -1 -13.90 122.00 TC -13.93 122.02 7 6 238
1945 SI WA 01:00:00 TS -14.00 121.83 992 bom 303 293 P_____O__PP___ SH081945 -13.94 122.04 -1 -14.40 120.40 992 -13.94 122.04 TC -13.96 122.04 7 5 229
1945 SI WA 03:00:00 TS -14.08 121.81 293 283 P_____P__PP___ SH081945 -14.01 122.11 -1 -14.43 120.37 -14.01 122.11 TC -14.02 122.08 7 2 0
1945 SI WA 06:00:00 TS -14.18 121.81 283 273 O_____P__OP___ jtwc_sh SH081945 -14.10 122.20 -1 -14.49 120.32 -14.10 122.20 TC -14.10 122.15 7 2 198
1945 SI WA 09:00:00 TS -14.26 121.76 273 273 P_____P__PP___ SH081945 -14.16 122.26 -1 -14.54 120.27 -14.16 122.26 TC -14.16 122.23 7 1 198
1945 SI WA 11:00:00 TS -14.29 121.78 273 273 P_____P__PO___ SH081945 -14.19 122.29 -1 -14.58 120.24 -14.19 122.29 TC -14.20 122.30 7 1 136
1945 SI WA 12:00:00 TS -14.31 121.79 273 262 O_____P__OP___ jtwc_sh SH081945 -14.20 122.30 -1 -14.61 120.23 -14.20 122.30 TC -14.22 122.34 7 1 140
1945 SI WA 15:00:00 TS -14.36 121.83 262 258 P_____P__PP___ SH081945 -14.25 122.36 -1 -14.68 120.18 -14.25 122.36 TC -14.25 122.45 7 1 149
1945 SI WA 18:00:00 TS -14.41 121.86 258 248 O_____P__OP___ jtwc_sh SH081945 -14.30 122.40 -1 -14.76 120.13 -14.30 122.40 TC -14.29 122.51 7 1 157
1945 SI WA 21:00:00 TS -14.47 121.87 248 248 P_____P__PP___ SH081945 -14.33 122.47 -1 -14.85 120.07 -14.33 122.47 TC -14.35 122.49 7 1 185
1945 SI WA 23:00:00 TS -14.52 121.83 253 248 P_____P__PO___ SH081945 -14.37 122.45 -1 -14.92 120.04 -14.37 122.45 TC -14.40 122.40 7 4 240
1945 SI WA 1945-03-02 00:00:00 TS -14.58 121.68 248 248 O_____P__OP___ jtwc_sh SH081945 -14.40 122.40 -1 -14.96 120.02 -14.40 122.40 TC -14.44 122.33 7 10 248
1945 SI WA 01:00:00 TS -14.64 121.53 985 bom 260 251 P_____O__PP___ SH081945 -14.44 122.32 -1 -15.00 120.00 985 -14.44 122.32 TC -14.48 122.24 7 9 245
1945 SI WA 03:00:00 TS -14.75 121.28 256 256 P_____P__PP___ SH081945 -14.53 122.08 -1 -15.09 119.96 -14.53 122.08 TC -14.57 122.01 7 8 244
1945 SI WA 06:00:00 TS -14.93 120.91 278 270 O_____P__OP___ jtwc_sh SH081945 -14.70 121.60 -1 -15.23 119.90 -14.70 121.60 TC -14.72 121.58 7 8 245
1945 SI WA 09:00:00 TS -15.08 120.57 286 286 P_____P__PP___ SH081945 -14.85 121.08 -1 -15.38 119.82 -14.85 121.08 TC -14.89 121.06 7 8 246
1945 SI WA 11:00:00 TS -15.18 120.32 301 301 P_____P__PO___ SH081945 -14.95 120.70 -1 -15.49 119.76 -14.95 120.70 TC -15.00 120.70 7 8 247
1945 SI WA 12:00:00 TS -15.24 120.19 309 309 O_____P__OP___ jtwc_sh SH081945 -15.00 120.50 -1 -15.55 119.73 -15.00 120.50 TC -15.05 120.52 7 8 248
1945 SI WA 15:00:00 TS -15.39 119.79 327 327 P_____P__PP___ SH081945 -15.15 119.89 -1 -15.72 119.61 -15.15 119.89 TC -15.21 119.94 7 9 249
1945 SI WA 18:00:00 TS -15.55 119.37 357 357 O_____P__OP___ jtwc_sh SH081945 -15.30 119.30 -1 -15.89 119.47 -15.30 119.30 TC -15.36 119.33 7 9 248
1945 SI WA 21:00:00 TS -15.70 118.97 385 385 P_____P__PP___ SH081945 -15.45 118.77 -1 -16.07 119.30 -15.45 118.77 TC -15.51 118.75 7 8 248
1945 SI WA 23:00:00 TS -15.81 118.71 409 409 P_____P__PO___ SH081945 -15.55 118.45 -1 -16.19 119.16 -15.55 118.45 TC -15.60 118.40 7 8 247
1945 SI WA 1945-03-03 00:00:00 TS -15.86 118.59 414 414 O_____P__OP___ jtwc_sh SH081945 -15.60 118.30 -1 -16.24 119.08 -15.60 118.30 TC -15.64 118.25 7 8 247
1945 SI WA 01:00:00 TS -15.91 118.46 980 bom 424 424 P_____O__PP___ SH081945 -15.65 118.15 -1 -16.30 119.00 980 -15.65 118.15 TC -15.68 118.10 7 8 247
1945 SI WA 03:00:00 TS -16.01 118.22 450 450 P_____P__PP___ SH081945 -15.75 117.88 -1 -16.41 118.81 -15.75 117.88 TC -15.76 117.84 7 8 246
1945 SI WA 06:00:00 TS -16.16 117.86 454 453 O_____P__OP___ jtwc_sh SH081945 -15.90 117.50 -1 -16.58 118.47 -15.90 117.50 TC -15.88 117.47 7 7 246
1945 SI WA 09:00:00 TS -16.31 117.51 457 451 P_____P__PP___ SH081945 -16.05 117.15 -1 -16.75 118.11 -16.05 117.15 TC -16.01 117.13 7 8 246
1945 SI WA 11:00:00 TS -16.41 117.27 455 446 P_____P__PO___ SH081945 -16.15 116.92 -1 -16.86 117.85 -16.15 116.92 TC -16.10 116.90 7 8 247
1945 SI WA 12:00:00 TS -16.46 117.14 448 443 O_____P__OP___ jtwc_sh SH081945 -16.20 116.80 -1 -16.91 117.71 -16.20 116.80 TC -16.15 116.76 7 8 248
1945 SI WA 15:00:00 TS -16.62 116.74 447 426 P_____P__PP___ SH081945 -16.35 116.40 -1 -17.07 117.30 -16.35 116.40 TC -16.33 116.35 7 8 248
1945 SI WA 18:00:00 TS -16.77 116.34 427 418 O_____P__OP___ jtwc_sh SH081945 -16.50 116.00 -1 -17.21 116.90 -16.50 116.00 TC -16.51 115.95 7 8 248
1945 SI WA 21:00:00 TS -16.92 115.95 420 411 P_____P__PP___ SH081945 -16.65 115.61 -1 -17.34 116.50 -16.65 115.61 TC -16.69 115.59 7 8 247
1945 SI WA 23:00:00 TS -17.02 115.73 416 408 P_____P__PO___ SH081945 -16.75 115.39 -1 -17.43 116.24 -16.75 115.39 TC -16.80 115.40 7 7 246
1945 SI WA 1945-03-04 00:00:00 TS -17.06 115.63 408 408 O_____P__OP___ jtwc_sh SH081945 -16.80 115.30 -1 -17.46 116.12 -16.80 115.30 TC -16.85 115.32 7 6 244
1945 SI WA 01:00:00 TS -17.11 115.54 970 bom 411 404 P_____O__PP___ SH081945 -16.85 115.22 -1 -17.50 116.00 970 -16.85 115.22 TC -16.89 115.25 7 5 244
1945 SI WA 03:00:00 TS -17.18 115.38 404 401 P_____P__PP___ SH081945 -16.96 115.10 -1 -17.54 115.77 -16.96 115.10 TC -16.98 115.14 7 5 243
1945 SI WA 06:00:00 TS -17.28 115.18 401 400 O_____P__OP___ jtwc_sh SH081945 -17.10 115.00 -1 -17.58 115.43 -17.10 115.00 TC -17.10 115.03 7 4 243
1945 SI WA 09:00:00 TS -17.36 115.01 400 400 P_____P__PP___ SH081945 -17.20 114.94 -1 -17.61 115.11 -17.20 114.94 TC -17.22 114.95 7 3 243
1945 SI WA 11:00:00 TS -17.41 114.92 404 404 P_____P__PO___ SH081945 -17.26 114.92 -1 -17.62 114.91 -17.26 114.92 TC -17.30 114.90 7 3 241
1945 SI WA 12:00:00 TS -17.44 114.87 404 400 O_____P__OP___ jtwc_sh SH081945 -17.30 114.90 -1 -17.63 114.82 -17.30 114.90 TC -17.34 114.87 7 4 237
1945 SI WA 15:00:00 TS -17.54 114.71 405 395 P_____P__PP___ SH081945 -17.45 114.80 -1 -17.67 114.56 -17.45 114.80 TC -17.45 114.78 7 4 234
1945 SI WA 18:00:00 TS -17.65 114.57 401 392 O_____P__OP___ jtwc_sh SH081945 -17.60 114.70 -1 -17.73 114.33 -17.60 114.70 TC -17.57 114.71 7 3 228
1945 SI WA 21:00:00 TS -17.75 114.46 389 389 P_____P__PP___ SH081945 -17.69 114.65 -1 -17.81 114.16 -17.69 114.65 TC -17.70 114.64 7 3 220
1945 SI WA 23:00:00 TS -17.83 114.41 394 385 P_____P__PO___ SH081945 -17.76 114.62 -1 -17.90 114.07 -17.76 114.62 TC -17.80 114.60 7 3 210
1945 SI WA 1945-03-05 00:00:00 TS -17.88 114.38 385 385 O_____P__OP___ jtwc_sh SH081945 -17.80 114.60 -1 -17.95 114.03 -17.80 114.60 TC -17.85 114.57 7 4 209
1945 SI WA 01:00:00 TS -17.94 114.35 965 bom 390 371 P_____O__PP___ SH081945 -17.85 114.57 -1 -18.00 114.00 965 -17.85 114.57 TC -17.91 114.54 7 4 208
1945 SI WA 03:00:00 TS -18.07 114.28 371 358 P_____P__PP___ SH081945 -17.98 114.50 -1 -18.15 113.94 -17.98 114.50 TC -18.02 114.47 7 5 201
1945 SI WA 06:00:00 TS -18.29 114.20 358 340 O_____P__OP___ jtwc_sh SH081945 -18.20 114.40 -1 -18.41 113.89 -18.20 114.40 TC -18.21 114.39 7 5 194
1945 SI WA 09:00:00 TS -18.53 114.17 340 321 P_____P__PP___ SH081945 -18.43 114.34 -1 -18.67 113.90 -18.43 114.34 TC -18.44 114.32 7 5 186
1945 SI WA 11:00:00 TS -18.70 114.17 321 312 P_____P__PO___ SH081945 -18.61 114.31 -1 -18.84 113.94 -18.61 114.31 TC -18.60 114.30 7 5 0
1945 SI WA 12:00:00 TS -18.78 114.17 312 303 O_____P__OP___ jtwc_sh SH081945 -18.70 114.30 -1 -18.92 113.96 -18.70 114.30 TC -18.69 114.29 7 5 174
1945 SI WA 13:00:00 TS -18.87 114.18 bom 303 294 P_____O__PP___ SH081945 -18.79 114.29 -1 -19.00 114.00 -18.79 114.29 TC -18.78 114.28 7 5 177
1945 SI WA 15:00:00 TS -19.03 114.20 294 261 P_____P__PP___ SH081945 -18.99 114.27 -1 -19.12 114.08 -18.99 114.27 TC -18.97 114.27 7 5 165
1945 SI WA 18:00:00 TS -19.27 114.28 261 237 O_____P__OP___ jtwc_sh SH081945 -19.30 114.30 -1 -19.28 114.25 -19.30 114.30 TC -19.28 114.30 7 5 156
1945 SI WA 21:00:00 TS -19.51 114.43 237 214 P_____P__PP___ SH081945 -19.60 114.41 -1 -19.42 114.47 -19.60 114.41 TC -19.59 114.40 7 6 147
1945 SI WA 23:00:00 TS -19.67 114.56 207 207 P_____P__PO___ SH081945 -19.80 114.53 -1 -19.51 114.63 -19.80 114.53 TC -19.80 114.50 7 6 141
1945 SI WA 1945-03-06 00:00:00 TS -19.75 114.64 198 191 O_____P__OP___ jtwc_sh SH081945 -19.90 114.60 -1 -19.55 114.71 -19.90 114.60 TC -19.90 114.56 7 7 138
1945 SI WA 01:00:00 TS -19.83 114.71 950 bom 191 161 P_____O__PP___ SH081945 -20.00 114.68 -1 -19.60 114.80 950 -20.00 114.68 TC -20.00 114.64 7 7 137
1945 SI WA 03:00:00 TS -20.00 114.88 161 130 P_____P__PP___ SH081945 -20.21 114.88 -1 -19.68 114.92 -20.21 114.88 TC -20.20 114.81 7 7 135
1945 SI WA 06:00:00 TS -20.24 115.16 124 84 O_____P__OP___ jtwc_sh SH081945 -20.50 115.20 -1 -19.80 115.11 -20.50 115.20 TC -20.49 115.12 7 7 132
1945 SI WA 09:00:00 TS -20.48 115.43 84 64 P_____P__PP___ SH081945 -20.77 115.49 -1 -19.93 115.31 -20.77 115.49 TC -20.75 115.46 7 7 130
1945 SI WA 11:00:00 TS -20.62 115.63 64 49 P_____P__PO___ SH081945 -20.93 115.69 -1 -20.02 115.46 -20.93 115.69 TC -20.90 115.70 7 7 127
1945 SI WA 12:00:00 TS -20.69 115.73 49 20 O_____P__OP___ jtwc_sh SH081945 -21.00 115.80 -1 -20.07 115.54 -21.00 115.80 TC -20.97 115.80 7 7 123
1945 SI WA 15:00:00 TS -20.87 116.05 20 0 P_____P__PP___ SH081945 -21.16 116.14 -1 -20.26 115.82 -21.16 116.14 TC -21.13 116.11 7 7 120
1945 SI WA 18:00:00 TS -21.04 116.39 0 0 O_____P__OP___ jtwc_sh SH081945 -21.30 116.50 -1 -20.50 116.17 -21.30 116.50 TC -21.27 116.45 7 8 118
1945 SI WA 21:00:00 TS -21.23 116.76 945 bom 0 0 P_____O__PP___ SH081945 -21.45 116.83 -1 -20.80 116.60 945 4 -21.45 116.83 TC -21.41 116.82 7 8 118
1945 SI WA 23:00:00 TS -21.36 117.03 0 0 P_____P__PO___ SH081945 -21.55 117.07 -1 -21.05 116.94 955 -21.55 117.07 TC -21.50 117.10 7 9 117
1945 SI WA 1945-03-07 00:00:00 TS -21.43 117.17 0 0 O_____P__OP___ jtwc_sh SH081945 -21.60 117.20 -1 -21.18 117.12 960 -21.60 117.20 TC -21.56 117.25 7 9 116
1945 SI WA 01:00:00 TS -21.50 117.32 965 bom 0 0 P_____O__PP___ SH081945 -21.65 117.34 -1 -21.30 117.30 965 -21.65 117.34 TC -21.63 117.40 7 10 113
1945 SI WA 03:00:00 TS -21.62 117.64 0 0 P_____P__PP___ SH081945 -21.75 117.66 -1 -21.50 117.65 -21.75 117.66 TC -21.77 117.72 7 10 110
1945 SI WA 06:00:00 TS -21.77 118.15 0 0 O_____P__OP___ jtwc_sh SH081945 -21.90 118.20 -1 -21.71 118.16 -21.90 118.20 TC -21.97 118.25 7 10 107
1945 SI WA 09:00:00 TS -21.91 118.68 0 0 P_____P__PP___ SH081945 -22.06 118.78 -1 -21.82 118.65 -22.06 118.78 TC -22.13 118.81 7 10 103
1945 SI WA 11:00:00 TS -21.97 119.05 0 0 P_____P__PO___ SH081945 -22.16 119.19 -1 -21.85 118.96 -22.16 119.19 TC -22.20 119.20 7 10 97
1945 SI WA 12:00:00 TS -21.97 119.22 0 0 O_____P__OP___ jtwc_sh SH081945 -22.20 119.40 -1 -21.85 119.11 -22.20 119.40 TC -22.22 119.40 7 9 89
1945 SI WA 15:00:00 TS -21.95 119.73 0 0 P_____P__PP___ SH081945 -22.27 120.01 -1 -21.81 119.57 -22.27 120.01 TC -22.25 120.01 7 9 82
1945 SI WA 18:00:00 TS -21.85 120.18 0 0 O_____P__OP___ jtwc_sh SH081945 -22.30 120.60 -1 -21.72 120.01 -22.30 120.60 TC -22.22 120.64 7 8 70
1945 SI WA 21:00:00 TS -21.67 120.58 0 0 ______P___P___ SH081945 -1 -21.60 120.44 TC -22.15 121.27 7 8 66
1945 SI WA 23:00:00 TS -21.57 120.85 0 0 ______P___O___ SH081945 -1 -21.50 120.72 TC -22.10 121.70 7 7 46
1945 SI WA 1945-03-08 00:00:00 TS -21.43 120.84 0 0 ______P_______ -1 -21.45 120.86 7 7 39
1945 SI WA 01:00:00 NR -21.40 121.00 995 bom 0 ______O_______ -1 -21.40 121.00 995 7 9 77